createdAt,value
2023-03-10T00:00:00.496Z,75.72
2023-03-10T00:10:02.705Z,75.69
2023-03-10T00:20:11.551Z,75.74
2023-03-10T00:30:14.230Z,76.93
2023-03-10T00:40:16.563Z,76.67
2023-03-10T00:50:18.689Z,76.88
2023-03-10T01:00:23.393Z,75.51
2023-03-10T01:10:25.452Z,74.72
2023-03-10T01:20:27.550Z,78.17
2023-03-10T01:30:29.653Z,76.73
2023-03-10T01:40:32.418Z,78.06
2023-03-10T01:50:34.610Z,74.25
2023-03-10T02:00:40.492Z,76.63
2023-03-10T02:10:42.665Z,72.62
2023-03-10T02:20:56.702Z,74.29
2023-03-10T02:30:59.192Z,72.98
2023-03-10T02:41:02.004Z,75.64
2023-03-10T02:51:20.016Z,75.51
2023-03-10T03:01:22.544Z,74.25
2023-03-10T03:11:25.251Z,73.14
2023-03-10T03:21:28.734Z,73.42
2023-03-10T03:31:31.335Z,73.63
2023-03-10T03:41:43.622Z,75.63
2023-03-10T03:51:46.710Z,73.85
2023-03-10T04:01:49.164Z,73.21
2023-03-10T04:11:51.394Z,73.00
2023-03-10T04:21:55.585Z,72.53
2023-03-10T04:32:05.344Z,72.58
2023-03-10T04:42:11.361Z,72.07
2023-03-10T04:52:14.307Z,72.40
2023-03-10T05:02:18.313Z,71.96
2023-03-10T05:12:20.638Z,70.37
2023-03-10T05:22:22.817Z,69.27
2023-03-10T05:32:25.042Z,71.17
2023-03-10T05:42:28.178Z,71.04
2023-03-10T05:52:30.447Z,70.96
2023-03-10T06:02:32.953Z,71.91
2023-03-10T06:12:35.198Z,71.53
2023-03-10T06:22:37.314Z,69.68
2023-03-10T06:32:39.442Z,69.23
2023-03-10T06:42:41.910Z,69.41
2023-03-10T06:52:45.311Z,71.53
2023-03-10T07:02:47.410Z,70.89
2023-03-10T07:12:54.880Z,71.08
2023-03-10T07:22:56.926Z,70.91
2023-03-10T07:32:58.979Z,71.31
2023-03-10T07:43:01.392Z,73.40
2023-03-10T07:53:04.302Z,72.71
2023-03-10T08:03:06.387Z,73.29
2023-03-10T08:13:08.526Z,71.05
2023-03-10T08:23:10.614Z,71.92
2023-03-10T08:33:12.744Z,69.11
2023-03-10T08:43:14.879Z,70.65
2023-03-10T08:53:16.946Z,70.85
2023-03-10T09:03:19.309Z,69.56
2023-03-10T09:13:21.748Z,71.29
2023-03-10T09:23:23.811Z,67.44
2023-03-10T09:33:25.884Z,67.90
2023-03-10T09:43:30.886Z,69.98
2023-03-10T09:53:38.975Z,69.37
2023-03-10T10:03:52.551Z,65.54
2023-03-10T10:14:26.230Z,63.36
2023-03-10T10:24:30.882Z,62.83
2023-03-10T10:34:33.950Z,62.83
2023-03-10T10:44:41.124Z,62.77
2023-03-10T10:54:43.687Z,60.91
2023-03-10T11:04:46.809Z,58.60
2023-03-10T11:15:01.799Z,57.80
2023-03-10T11:25:27.573Z,55.93
2023-03-10T11:35:43.846Z,54.51
2023-03-10T11:45:54.320Z,53.46
2023-03-10T11:55:57.580Z,52.54
2023-03-10T12:06:00.736Z,53.88
2023-03-10T12:16:04.155Z,60.01
2023-03-10T12:26:06.373Z,63.57
2023-03-10T12:36:15.929Z,68.53
2023-03-10T12:46:39.739Z,67.44
2023-03-10T12:56:52.482Z,68.33
2023-03-10T13:06:56.837Z,69.01
2023-03-10T13:17:00.669Z,68.82
2023-03-10T13:27:13.795Z,67.47
2023-03-10T13:37:15.962Z,68.68
2023-03-10T13:47:20.410Z,67.43
2023-03-10T13:57:26.729Z,71.06
2023-03-10T14:07:36.974Z,69.89
2023-03-10T14:17:39.653Z,72.18
2023-03-10T14:27:44.778Z,72.61
2023-03-10T14:37:50.777Z,74.74
2023-03-10T14:47:54.644Z,69.57
2023-03-10T14:57:59.644Z,72.42
2023-03-10T15:08:04.209Z,76.18
2023-03-10T15:18:09.158Z,74.41
2023-03-10T15:28:12.657Z,73.33
2023-03-10T15:38:15.372Z,73.88
2023-03-10T15:48:17.906Z,73.75
2023-03-10T15:58:20.120Z,72.08
2023-03-10T16:08:22.282Z,71.48
2023-03-10T16:18:24.790Z,74.48
2023-03-10T16:28:26.853Z,72.84
2023-03-10T16:38:29.324Z,73.46
2023-03-10T16:48:31.625Z,75.02
2023-03-10T16:58:34.049Z,77.79
2023-03-10T17:08:37.471Z,73.14
2023-03-10T17:18:39.532Z,74.19
2023-03-10T17:28:42.885Z,73.89
2023-03-10T17:38:45.640Z,74.57
2023-03-10T17:48:47.994Z,74.40
2023-03-10T17:58:52.562Z,71.19
2023-03-10T18:08:56.445Z,76.02
2023-03-10T18:18:59.564Z,76.24
2023-03-10T18:29:01.620Z,72.65
2023-03-10T18:39:14.123Z,72.92
2023-03-10T18:49:16.718Z,75.29
2023-03-10T18:59:19.984Z,73.52
2023-03-10T19:09:24.497Z,71.60
2023-03-10T19:19:28.462Z,72.07
2023-03-10T19:29:34.764Z,72.07
2023-03-10T19:39:37.155Z,73.15
2023-03-10T19:49:39.659Z,69.96
2023-03-10T19:59:42.308Z,70.58
2023-03-10T20:09:46.057Z,70.02
2023-03-10T20:19:48.267Z,69.04
2023-03-10T20:29:50.415Z,68.04
2023-03-10T20:39:52.559Z,67.11
2023-03-10T20:49:55.707Z,68.16
2023-03-10T20:59:58.212Z,66.91
2023-03-10T21:10:00.386Z,69.48
2023-03-10T21:20:07.905Z,66.87
2023-03-10T21:30:12.775Z,67.84
2023-03-10T21:40:19.644Z,66.58
2023-03-10T21:50:22.370Z,67.07
2023-03-10T22:00:24.714Z,67.80
2023-03-10T22:10:27.354Z,68.14
2023-03-10T22:20:29.694Z,65.02
2023-03-10T22:30:32.093Z,68.44
2023-03-10T22:40:34.398Z,66.74
2023-03-10T22:50:39.312Z,67.59
2023-03-10T23:00:42.564Z,68.63
2023-03-10T23:10:44.772Z,70.68
2023-03-10T23:20:49.032Z,68.75
2023-03-10T23:30:51.448Z,69.86
2023-03-10T23:40:55.324Z,71.37
2023-03-10T23:50:57.762Z,71.70
